createdAt,value
2023-05-19T00:01:21.760Z,7.44
2023-05-19T00:04:25.100Z,7.44
2023-05-19T00:07:32.808Z,7.45
2023-05-19T00:10:36.689Z,7.45
2023-05-19T00:13:39.850Z,7.46
2023-05-19T00:16:43.406Z,7.47
2023-05-19T00:19:46.809Z,7.47
2023-05-19T00:22:51.213Z,7.48
2023-05-19T00:25:54.270Z,7.49
2023-05-19T00:28:57.458Z,7.49
2023-05-19T00:32:00.553Z,7.50
2023-05-19T00:35:03.662Z,7.51
2023-05-19T00:38:06.949Z,7.51
2023-05-19T00:41:10.148Z,7.52
2023-05-19T00:44:13.257Z,7.53
2023-05-19T00:47:16.934Z,7.55
2023-05-19T00:50:20.030Z,7.54
2023-05-19T00:53:24.724Z,7.55
2023-05-19T00:56:27.879Z,7.55
2023-05-19T00:59:30.999Z,7.56
2023-05-19T01:02:34.990Z,7.56
2023-05-19T01:05:40.303Z,7.57
2023-05-19T01:08:43.602Z,7.58
2023-05-19T01:11:46.595Z,7.58
2023-05-19T01:14:50.364Z,7.59
2023-05-19T01:18:11.432Z,7.60
2023-05-19T01:21:36.981Z,7.60
2023-05-19T01:24:58.793Z,7.61
2023-05-19T01:28:34.519Z,7.62
2023-05-19T01:31:40.176Z,7.63
2023-05-19T01:34:47.264Z,7.64
2023-05-19T01:37:55.203Z,7.64
2023-05-19T01:41:04.454Z,7.65
2023-05-19T01:44:10.076Z,7.65
2023-05-19T01:47:19.288Z,7.67
2023-05-19T01:50:23.873Z,7.68
2023-05-19T01:53:27.159Z,7.68
2023-05-19T01:56:50.349Z,7.69
2023-05-19T02:00:06.618Z,7.69
2023-05-19T02:03:31.009Z,7.69
2023-05-19T02:06:50.131Z,7.70
2023-05-19T02:10:06.515Z,7.71
2023-05-19T02:13:21.669Z,7.71
2023-05-19T02:16:30.411Z,7.72
2023-05-19T02:19:42.604Z,7.73
2023-05-19T02:22:46.071Z,7.74
2023-05-19T02:25:57.050Z,7.74
2023-05-19T02:29:02.692Z,7.74
2023-05-19T02:32:08.819Z,7.74
2023-05-19T02:35:13.539Z,7.74
2023-05-19T02:38:26.575Z,7.74
2023-05-19T02:41:30.852Z,7.74
2023-05-19T02:44:34.244Z,7.72
2023-05-19T02:47:39.102Z,7.73
2023-05-19T02:50:46.929Z,7.73
2023-05-19T02:53:50.559Z,7.74
2023-05-19T02:56:54.182Z,7.75
2023-05-19T02:59:58.368Z,7.75
2023-05-19T03:03:03.488Z,7.75
2023-05-19T03:06:08.870Z,7.75
2023-05-19T03:09:13.027Z,7.75
2023-05-19T03:12:18.616Z,7.75
2023-05-19T03:15:23.691Z,7.76
2023-05-19T03:18:29.378Z,7.77
2023-05-19T03:21:34.682Z,7.77
2023-05-19T03:24:37.964Z,7.79
2023-05-19T03:27:43.648Z,7.81
2023-05-19T03:30:52.293Z,7.83
2023-05-19T03:33:57.926Z,7.86
2023-05-19T03:37:01.689Z,7.88
2023-05-19T03:40:07.069Z,7.92
2023-05-19T03:43:10.929Z,7.96
2023-05-19T03:46:14.961Z,8.00
2023-05-19T03:49:19.519Z,8.04
2023-05-19T03:52:26.175Z,8.09
2023-05-19T03:55:31.415Z,8.14
2023-05-19T03:58:37.137Z,8.17
2023-05-19T04:01:42.083Z,8.21
2023-05-19T04:04:46.392Z,8.25
2023-05-19T04:07:49.999Z,8.29
2023-05-19T04:10:54.265Z,8.32
2023-05-19T04:13:57.426Z,8.35
2023-05-19T04:17:00.910Z,8.40
2023-05-19T04:20:06.476Z,8.47
2023-05-19T04:23:12.607Z,8.55
2023-05-19T04:26:18.093Z,8.63
2023-05-19T04:29:24.332Z,8.71
2023-05-19T04:32:30.473Z,8.77
2023-05-19T04:36:06.203Z,8.81
2023-05-19T04:39:30.509Z,8.87
2023-05-19T04:42:47.652Z,8.90
2023-05-19T04:45:51.932Z,8.95
2023-05-19T04:48:57.815Z,9.02
2023-05-19T04:52:01.502Z,9.11
2023-05-19T04:55:05.625Z,9.25
2023-05-19T04:58:09.496Z,9.40
2023-05-19T05:01:33.281Z,9.57
2023-05-19T05:04:36.923Z,9.75
2023-05-19T05:07:41.661Z,9.83
2023-05-19T05:10:54.165Z,9.90
2023-05-19T05:13:59.902Z,10.00
2023-05-19T05:17:03.491Z,10.08
2023-05-19T05:20:08.858Z,10.21
2023-05-19T05:23:14.840Z,10.38
2023-05-19T05:26:25.206Z,10.53
2023-05-19T05:29:28.270Z,10.62
2023-05-19T05:32:32.353Z,10.69
2023-05-19T05:35:35.393Z,10.83
2023-05-19T05:38:39.418Z,10.99
2023-05-19T05:41:43.058Z,11.13
2023-05-19T05:44:46.670Z,11.37
2023-05-19T05:47:51.035Z,11.65
2023-05-19T05:50:56.917Z,11.94
2023-05-19T05:54:01.169Z,12.13
2023-05-19T05:57:04.684Z,12.17
2023-05-19T06:00:16.134Z,12.14
2023-05-19T06:03:24.600Z,12.16
2023-05-19T06:06:28.545Z,12.26
2023-05-19T06:09:33.024Z,12.43
2023-05-19T06:12:41.166Z,12.54
2023-05-19T06:15:44.913Z,12.56
2023-05-19T06:18:48.260Z,12.56
2023-05-19T06:21:52.447Z,12.59
2023-05-19T06:24:58.070Z,12.64
2023-05-19T06:28:01.311Z,12.71
2023-05-19T06:31:04.626Z,12.75
2023-05-19T06:34:10.843Z,12.76
2023-05-19T06:37:19.748Z,12.81
2023-05-19T06:40:23.332Z,12.76
2023-05-19T06:43:27.187Z,12.72
2023-05-19T06:46:30.424Z,12.68
2023-05-19T06:49:33.742Z,12.67
2023-05-19T06:52:39.305Z,12.63
2023-05-19T06:55:58.217Z,12.58
2023-05-19T06:59:03.230Z,12.52
2023-05-19T07:02:07.280Z,12.52
2023-05-19T07:05:15.601Z,12.64
2023-05-19T07:08:37.479Z,12.77
2023-05-19T07:11:41.725Z,12.82
2023-05-19T07:14:45.802Z,12.86
2023-05-19T07:17:51.722Z,12.87
2023-05-19T07:20:55.920Z,12.91
2023-05-19T07:23:59.445Z,12.93
2023-05-19T07:27:04.417Z,12.88
2023-05-19T07:30:09.043Z,12.85
2023-05-19T07:33:12.494Z,12.90
2023-05-19T07:36:16.010Z,13.04
2023-05-19T07:39:19.555Z,13.12
2023-05-19T07:42:32.103Z,13.08
2023-05-19T07:45:36.436Z,13.09
2023-05-19T07:48:39.534Z,13.14
2023-05-19T07:51:43.131Z,13.26
2023-05-19T07:54:48.606Z,13.44
2023-05-19T07:57:53.160Z,13.64
2023-05-19T08:01:00.835Z,13.79
2023-05-19T08:04:04.008Z,13.89
2023-05-19T08:07:07.458Z,13.92
2023-05-19T08:10:11.133Z,13.95
2023-05-19T08:13:15.016Z,14.00
2023-05-19T08:16:18.380Z,14.05
2023-05-19T08:19:22.269Z,14.06
2023-05-19T08:22:26.143Z,14.01
2023-05-19T08:25:29.608Z,13.97
2023-05-19T08:28:32.803Z,13.96
2023-05-19T08:31:36.639Z,14.01
2023-05-19T08:34:39.886Z,13.98
2023-05-19T08:37:43.850Z,13.98
2023-05-19T08:40:48.771Z,14.02
2023-05-19T08:43:52.006Z,14.15
2023-05-19T08:46:58.299Z,14.29
2023-05-19T08:50:08.669Z,14.37
2023-05-19T08:56:36.376Z,14.51
2023-05-19T08:59:41.598Z,14.46
2023-05-19T09:02:59.690Z,14.34
2023-05-19T09:06:14.082Z,14.20
2023-05-19T09:09:17.582Z,14.24
2023-05-19T09:12:21.274Z,14.31
2023-05-19T09:15:28.749Z,14.40
2023-05-19T09:18:32.350Z,14.52
2023-05-19T09:21:36.448Z,14.66
2023-05-19T09:24:40.915Z,14.78
2023-05-19T09:27:44.330Z,14.82
2023-05-19T09:30:47.402Z,14.83
2023-05-19T09:33:54.358Z,14.90
2023-05-19T09:37:00.069Z,14.86
2023-05-19T09:40:05.984Z,14.87
2023-05-19T09:43:11.024Z,14.91
2023-05-19T09:46:16.057Z,15.02
2023-05-19T09:49:24.195Z,15.12
2023-05-19T09:52:28.495Z,15.14
2023-05-19T09:55:34.025Z,15.11
2023-05-19T09:58:38.257Z,15.17
2023-05-19T10:01:46.571Z,15.28
2023-05-19T10:04:51.331Z,15.54
2023-05-19T10:07:55.972Z,15.88
2023-05-19T10:11:00.276Z,16.12
2023-05-19T10:14:04.771Z,16.27
2023-05-19T10:17:10.087Z,16.36
2023-05-19T10:20:16.159Z,16.37
2023-05-19T10:23:19.850Z,16.36
2023-05-19T10:26:25.327Z,16.47
2023-05-19T10:29:34.967Z,16.57
2023-05-19T10:32:40.618Z,16.65
2023-05-19T10:36:14.470Z,16.65
2023-05-19T10:39:27.960Z,16.58
2023-05-19T10:42:42.162Z,16.43
2023-05-19T10:45:49.735Z,16.37
2023-05-19T10:48:52.869Z,16.44
2023-05-19T10:51:58.324Z,16.56
2023-05-19T10:55:01.364Z,16.70
2023-05-19T10:58:04.732Z,16.77
2023-05-19T11:01:18.715Z,16.81
2023-05-19T11:04:41.309Z,16.88
2023-05-19T11:08:04.749Z,16.96
2023-05-19T11:11:17.693Z,17.19
2023-05-19T11:14:24.221Z,17.25
2023-05-19T11:17:27.567Z,17.28
2023-05-19T11:20:35.263Z,17.27
2023-05-19T11:23:40.780Z,17.29
2023-05-19T11:26:43.950Z,17.39
2023-05-19T11:29:48.620Z,17.50
2023-05-19T11:32:52.585Z,17.59
2023-05-19T11:36:00.430Z,17.75
2023-05-19T11:39:06.214Z,17.92
2023-05-19T11:42:11.013Z,18.05
2023-05-19T11:45:14.873Z,18.16
2023-05-19T11:48:21.817Z,18.25
2023-05-19T11:51:25.168Z,18.35
2023-05-19T11:54:33.827Z,18.57
2023-05-19T11:57:38.437Z,18.86
2023-05-19T12:00:43.215Z,19.17
2023-05-19T12:03:46.747Z,19.28
2023-05-19T12:06:50.146Z,19.25
2023-05-19T12:09:55.571Z,19.21
2023-05-19T12:12:59.969Z,19.06
2023-05-19T12:16:05.458Z,18.99
2023-05-19T12:19:08.824Z,18.93
2023-05-19T12:22:12.955Z,18.89
2023-05-19T12:25:17.108Z,18.94
2023-05-19T12:28:20.286Z,18.86
2023-05-19T12:31:24.142Z,18.92
2023-05-19T12:34:27.183Z,19.00
2023-05-19T12:37:30.382Z,19.11
2023-05-19T12:40:35.311Z,19.06
2023-05-19T12:43:39.807Z,19.07
2023-05-19T12:46:44.750Z,19.16
2023-05-19T12:50:00.360Z,19.29
2023-05-19T12:53:03.619Z,19.23
2023-05-19T12:56:14.726Z,19.01
2023-05-19T12:59:37.204Z,18.84
2023-05-19T13:03:00.741Z,18.68
2023-05-19T13:06:04.070Z,18.72
2023-05-19T13:09:07.413Z,18.66
2023-05-19T13:12:10.323Z,18.49
2023-05-19T13:15:13.259Z,18.35
2023-05-19T13:18:16.343Z,18.27
2023-05-19T13:21:19.571Z,18.33
2023-05-19T13:24:22.668Z,18.46
2023-05-19T13:27:25.596Z,18.51
2023-05-19T13:30:28.661Z,18.40
2023-05-19T13:33:32.292Z,18.27
2023-05-19T13:36:36.857Z,18.11
2023-05-19T13:39:40.637Z,17.96
2023-05-19T13:42:43.892Z,17.90
2023-05-19T13:45:46.974Z,17.91
2023-05-19T13:48:49.854Z,17.92
2023-05-19T13:51:57.318Z,18.01
2023-05-19T13:55:00.227Z,18.04
2023-05-19T13:58:03.782Z,17.91
2023-05-19T14:01:06.682Z,17.93
2023-05-19T14:04:10.711Z,17.94
2023-05-19T14:07:13.903Z,17.95
2023-05-19T14:10:16.818Z,17.97
2023-05-19T14:13:32.647Z,18.00
2023-05-19T14:16:38.359Z,17.97
2023-05-19T14:19:41.378Z,17.90
2023-05-19T14:22:44.316Z,17.78
2023-05-19T14:25:47.232Z,17.63
2023-05-19T14:28:50.131Z,17.59
2023-05-19T14:31:53.249Z,17.57
2023-05-19T14:34:56.376Z,17.43
2023-05-19T14:37:59.287Z,17.27
2023-05-19T14:41:02.936Z,17.26
2023-05-19T14:44:06.122Z,17.31
2023-05-19T14:47:11.407Z,17.19
2023-05-19T14:50:14.571Z,16.95
2023-05-19T14:53:17.587Z,16.84
2023-05-19T14:56:22.154Z,16.77
2023-05-19T14:59:25.190Z,16.76
2023-05-19T15:02:29.689Z,16.68
2023-05-19T15:05:32.877Z,16.65
2023-05-19T15:08:37.868Z,16.59
2023-05-19T15:11:40.981Z,16.53
2023-05-19T15:14:43.854Z,16.37
2023-05-19T15:17:48.031Z,16.17
2023-05-19T15:20:50.938Z,15.98
2023-05-19T15:23:53.945Z,15.84
2023-05-19T15:26:56.838Z,15.76
2023-05-19T15:29:59.744Z,15.66
2023-05-19T15:33:02.678Z,15.52
2023-05-19T15:36:06.007Z,15.43
2023-05-19T15:39:09.884Z,15.35
2023-05-19T15:42:12.808Z,15.29
2023-05-19T15:45:15.739Z,15.27
2023-05-19T15:48:18.664Z,15.23
2023-05-19T15:51:21.930Z,15.25
2023-05-19T15:54:25.650Z,15.34
2023-05-19T15:57:28.958Z,15.31
2023-05-19T16:00:32.043Z,15.16
2023-05-19T16:03:35.229Z,15.03
2023-05-19T16:06:38.295Z,15.00
2023-05-19T16:09:41.134Z,15.02
2023-05-19T16:12:44.072Z,14.93
2023-05-19T16:15:47.273Z,14.87
2023-05-19T16:18:50.646Z,14.82
2023-05-19T16:21:53.668Z,14.74
2023-05-19T16:24:56.556Z,14.60
2023-05-19T16:27:59.576Z,14.51
2023-05-19T16:31:02.887Z,14.43
2023-05-19T16:34:05.757Z,14.25
2023-05-19T16:37:08.767Z,14.03
2023-05-19T16:40:12.102Z,13.85
2023-05-19T16:43:14.983Z,13.71
2023-05-19T16:46:17.879Z,13.60
2023-05-19T16:49:20.964Z,13.49
2023-05-19T16:52:24.034Z,13.44
2023-05-19T16:55:27.123Z,13.38
2023-05-19T16:58:31.021Z,13.27
2023-05-19T17:01:34.158Z,13.23
2023-05-19T17:04:37.046Z,13.17
2023-05-19T17:07:39.908Z,13.07
2023-05-19T17:10:42.762Z,13.02
2023-05-19T17:13:46.457Z,12.92
2023-05-19T17:16:49.575Z,12.81
2023-05-19T17:19:52.602Z,12.70
2023-05-19T17:22:55.483Z,12.60
2023-05-19T17:26:02.083Z,12.50
2023-05-19T17:29:06.032Z,12.37
2023-05-19T17:32:09.084Z,12.26
2023-05-19T17:35:12.088Z,12.16
2023-05-19T17:38:15.129Z,12.09
2023-05-19T17:41:18.048Z,12.03
2023-05-19T17:44:23.202Z,11.96
2023-05-19T17:47:26.362Z,11.91
2023-05-19T17:50:29.241Z,11.84
2023-05-19T17:53:32.385Z,11.80
2023-05-19T17:56:41.593Z,11.76
2023-05-19T17:59:45.080Z,11.71
2023-05-19T18:02:48.441Z,11.66
2023-05-19T18:05:51.903Z,11.61
2023-05-19T18:08:58.146Z,11.56
2023-05-19T18:12:02.473Z,11.51
2023-05-19T18:15:06.130Z,11.49
2023-05-19T18:18:10.723Z,11.46
2023-05-19T18:21:17.855Z,11.43
2023-05-19T18:24:29.076Z,11.41
2023-05-19T18:27:33.568Z,11.38
2023-05-19T18:30:36.729Z,11.35
2023-05-19T18:33:39.796Z,11.32
2023-05-19T18:36:42.746Z,11.29
2023-05-19T18:39:45.751Z,11.27
2023-05-19T18:42:48.625Z,11.25
2023-05-19T18:45:51.595Z,11.23
2023-05-19T18:48:54.789Z,11.21
2023-05-19T18:51:57.786Z,11.19
2023-05-19T18:55:01.304Z,11.18
2023-05-19T18:58:04.798Z,11.16
2023-05-19T19:01:07.730Z,11.15
2023-05-19T19:04:10.685Z,11.15
2023-05-19T19:07:13.633Z,11.13
2023-05-19T19:10:16.693Z,11.13
2023-05-19T19:13:19.740Z,11.12
2023-05-19T19:16:22.829Z,11.11
2023-05-19T19:19:30.034Z,11.08
2023-05-19T19:22:33.264Z,11.06
2023-05-19T19:25:36.174Z,11.05
2023-05-19T19:28:39.194Z,11.03
2023-05-19T19:31:42.439Z,11.01
2023-05-19T19:34:45.544Z,10.98
2023-05-19T19:37:48.737Z,10.96
2023-05-19T19:40:52.766Z,10.95
2023-05-19T19:43:56.154Z,10.93
2023-05-19T19:46:59.693Z,10.90
2023-05-19T19:50:05.750Z,10.87
2023-05-19T19:53:09.056Z,10.84
2023-05-19T19:56:11.995Z,10.79
2023-05-19T19:59:16.041Z,10.77
2023-05-19T20:02:19.083Z,10.75
2023-05-19T20:05:22.331Z,10.73
2023-05-19T20:08:26.018Z,10.72
2023-05-19T20:11:29.130Z,10.69
2023-05-19T20:14:32.286Z,10.68
2023-05-19T20:17:37.231Z,10.67
2023-05-19T20:20:41.269Z,10.65
2023-05-19T20:23:44.384Z,10.64
2023-05-19T20:26:47.569Z,10.63
2023-05-19T20:29:50.641Z,10.61
2023-05-19T20:32:53.618Z,10.62
2023-05-19T20:35:56.560Z,10.61
2023-05-19T20:38:59.860Z,10.61
2023-05-19T20:42:02.754Z,10.61
2023-05-19T20:45:06.434Z,10.60
2023-05-19T20:48:11.247Z,10.60
2023-05-19T20:51:14.422Z,10.58
2023-05-19T20:54:19.863Z,10.58
2023-05-19T20:57:22.827Z,10.57
2023-05-19T21:00:25.859Z,10.56
2023-05-19T21:03:30.611Z,10.56
2023-05-19T21:06:33.970Z,10.56
2023-05-19T21:09:36.911Z,10.56
2023-05-19T21:12:39.879Z,10.55
2023-05-19T21:15:42.768Z,10.56
2023-05-19T21:18:45.706Z,10.57
2023-05-19T21:21:49.596Z,10.56
2023-05-19T21:24:53.202Z,10.57
2023-05-19T21:27:56.207Z,10.57
2023-05-19T21:30:59.253Z,10.58
2023-05-19T21:34:02.962Z,10.58
2023-05-19T21:37:05.861Z,10.58
2023-05-19T21:40:09.845Z,10.58
2023-05-19T21:43:13.000Z,10.57
2023-05-19T21:46:15.876Z,10.57
2023-05-19T21:49:18.854Z,10.57
2023-05-19T21:52:22.059Z,10.55
2023-05-19T21:55:24.961Z,10.56
2023-05-19T21:58:27.859Z,10.55
2023-05-19T22:01:30.869Z,10.55
2023-05-19T22:04:33.794Z,10.54
2023-05-19T22:07:36.797Z,10.53
2023-05-19T22:10:39.668Z,10.53
2023-05-19T22:13:42.628Z,10.53
2023-05-19T22:16:47.598Z,10.52
2023-05-19T22:19:50.690Z,10.52
2023-05-19T22:22:53.656Z,10.51
2023-05-19T22:25:56.504Z,10.49
2023-05-19T22:28:59.372Z,10.47
2023-05-19T22:32:02.363Z,10.46
2023-05-19T22:35:06.688Z,10.45
2023-05-19T22:38:10.671Z,10.44
2023-05-19T22:41:13.807Z,10.43
2023-05-19T22:44:18.202Z,10.43
2023-05-19T22:47:21.795Z,10.43
2023-05-19T22:50:24.854Z,10.43
2023-05-19T22:53:27.702Z,10.42
2023-05-19T22:56:30.550Z,10.43
2023-05-19T22:59:33.766Z,10.44
2023-05-19T23:02:36.816Z,10.44
2023-05-19T23:05:40.228Z,10.44
2023-05-19T23:08:46.736Z,10.44
2023-05-19T23:11:50.236Z,10.44
2023-05-19T23:14:53.133Z,10.44
2023-05-19T23:17:56.076Z,10.44
2023-05-19T23:20:59.041Z,10.44
2023-05-19T23:24:02.097Z,10.44
2023-05-19T23:27:05.712Z,10.44
2023-05-19T23:30:09.123Z,10.44
2023-05-19T23:33:12.060Z,10.44
2023-05-19T23:36:16.706Z,10.44
2023-05-19T23:39:19.711Z,10.44
2023-05-19T23:42:22.613Z,10.45
2023-05-19T23:45:25.611Z,10.46
2023-05-19T23:48:29.489Z,10.45
2023-05-19T23:51:32.349Z,10.45
2023-05-19T23:54:35.411Z,10.45
2023-05-19T23:57:38.375Z,10.45
